Ncc Reem — 3FPV4 — position and weather

sailwx.info

Track history (hours):
 
Tides and Currents Weather Stations Pressure Air Temp Water Temp Dewpoint Dewpoint Depression Visibility Wind Speed Wind Dir Waves Ship Positions

Ncc Reem

Last reported at 2018-Jan-19 18:16 UTC. Time now 2018-Jan-22 08:05 UTC.
Position S 00°14' W 051°19'.

Length 200 m; draft 7 m.

Type: Cargo ship. MMSI: 372930000.

Date/timePositionNaut miles runAvg speedWind from/ knotsBaromVisibWave heightAir tempDewpointWater temp
2018-Jan-19 18:16S 00°14' W 051°19'412.6
2018-Jan-19 17:59S 00°12' W 051°17'611.7
2018-Jan-19 17:30S 00°08' W 051°13'510.0
2018-Jan-19 17:00S 00°06' W 051°08'3 5.7
2018-Jan-19 16:30S 00°04' W 051°06'2 4.7
2018-Jan-19 16:00S 00°03' W 051°04'3 5.9
2018-Jan-19 15:30S 00°00' W 051°02'2 4.8
2018-Jan-19 15:00N 00°02' W 051°01'4 8.6
2018-Jan-19 14:30N 00°05' W 050°59'510.9
2018-Jan-19 14:00N 00°09' W 050°55'180 9.1
2018-Jan-18 18:06S 00°09' W 047°55'614.4
2018-Jan-18 17:40S 00°15' W 047°55'417.1
2018-Jan-18 17:25S 00°18' W 047°58'3514.6
2018-Jan-18 15:03S 00°42' W 048°24'112.5
2018-Jan-18 14:58S 00°42' W 048°24'612.1
2018-Jan-18 14:30S 00°47' W 048°28'611.1
2018-Jan-18 14:00S 00°52' W 048°29'611.6
2018-Jan-18 13:30S 00°58' W 048°26'611.7
2018-Jan-18 12:59S 01°03' W 048°29'611.1
2018-Jan-18 12:29S 01°08' W 048°32'3 6.7
2018-Jan-18 12:00S 01°11' W 048°33'714.3
2018-Jan-18 11:30S 01°17' W 048°37'714.7
2018-Jan-18 11:00S 01°22' W 048°42'714.3
2018-Jan-18 10:30S 01°29' W 048°44'  
2018-Jan-12 03:05S 01°30' W 048°46'0 0.2
2018-Jan-12 02:53S 01°30' W 048°46'0 0.0
2018-Jan-11 06:41S 01°30' W 048°46'0 0.0
2018-Jan-11 04:56S 01°30' W 048°46'0 0.0
2018-Jan-10 23:40S 01°31' W 048°46'0 0.1
2018-Jan-10 23:29S 01°31' W 048°46'0 0.0
2018-Jan-10 16:17S 01°30' W 048°46'0 0.0
2018-Jan-10 15:59S 01°30' W 048°46'0 0.0
2018-Jan-10 15:23S 01°30' W 048°46'0 0.0
2018-Jan-10 14:23S 01°30' W 048°46'0 0.0
2018-Jan-10 07:29S 01°31' W 048°46'0 0.0
2018-Jan-10 05:35S 01°31' W 048°46'0 0.1
2018-Jan-10 02:05S 01°30' W 048°46'0 0.1
2018-Jan-10 01:59S 01°30' W 048°46'0 0.0
2018-Jan-10 01:29S 01°30' W 048°46'0 0.0
2018-Jan-10 00:59S 01°30' W 048°46'0 0.1
2018-Jan-09 21:29S 01°31' W 048°46'  
Track history (hours):
 
Tides and Currents Weather Stations Pressure Air Temp Water Temp Dewpoint Dewpoint Depression Visibility Wind Speed Wind Dir Waves Ship Positions

Ncc Reem

Last reported at 2018-Jan-19 18:16 UTC. Time now 2018-Jan-22 08:05 UTC.
Position S 00°14' W 051°19'.

Length 200 m; draft 7 m.

Type: Cargo ship. MMSI: 372930000.

Date/timePositionNaut miles runAvg speedWind from/ knotsBaromVisibWave heightAir tempDewpointWater temp
2018-Jan-19 18:16S 00°14' W 051°19'412.6
2018-Jan-19 17:59S 00°12' W 051°17'611.7
2018-Jan-19 17:30S 00°08' W 051°13'510.0
2018-Jan-19 17:00S 00°06' W 051°08'3 5.7
2018-Jan-19 16:30S 00°04' W 051°06'2 4.7
2018-Jan-19 16:00S 00°03' W 051°04'3 5.9
2018-Jan-19 15:30S 00°00' W 051°02'2 4.8
2018-Jan-19 15:00N 00°02' W 051°01'4 8.6
2018-Jan-19 14:30N 00°05' W 050°59'510.9
2018-Jan-19 14:00N 00°09' W 050°55'180 9.1
2018-Jan-18 18:06S 00°09' W 047°55'614.4
2018-Jan-18 17:40S 00°15' W 047°55'417.1
2018-Jan-18 17:25S 00°18' W 047°58'3514.6
2018-Jan-18 15:03S 00°42' W 048°24'112.5
2018-Jan-18 14:58S 00°42' W 048°24'612.1
2018-Jan-18 14:30S 00°47' W 048°28'611.1
2018-Jan-18 14:00S 00°52' W 048°29'611.6
2018-Jan-18 13:30S 00°58' W 048°26'611.7
2018-Jan-18 12:59S 01°03' W 048°29'611.1
2018-Jan-18 12:29S 01°08' W 048°32'3 6.7
2018-Jan-18 12:00S 01°11' W 048°33'714.3
2018-Jan-18 11:30S 01°17' W 048°37'714.7
2018-Jan-18 11:00S 01°22' W 048°42'714.3
2018-Jan-18 10:30S 01°29' W 048°44'  
2018-Jan-12 03:05S 01°30' W 048°46'0 0.2
2018-Jan-12 02:53S 01°30' W 048°46'0 0.0
2018-Jan-11 06:41S 01°30' W 048°46'0 0.0
2018-Jan-11 04:56S 01°30' W 048°46'0 0.0
2018-Jan-10 23:40S 01°31' W 048°46'0 0.1
2018-Jan-10 23:29S 01°31' W 048°46'0 0.0
2018-Jan-10 16:17S 01°30' W 048°46'0 0.0
2018-Jan-10 15:59S 01°30' W 048°46'0 0.0
2018-Jan-10 15:23S 01°30' W 048°46'0 0.0
2018-Jan-10 14:23S 01°30' W 048°46'0 0.0
2018-Jan-10 07:29S 01°31' W 048°46'0 0.0
2018-Jan-10 05:35S 01°31' W 048°46'0 0.1
2018-Jan-10 02:05S 01°30' W 048°46'0 0.1
2018-Jan-10 01:59S 01°30' W 048°46'0 0.0
2018-Jan-10 01:29S 01°30' W 048°46'0 0.0
2018-Jan-10 00:59S 01°30' W 048°46'0 0.1
2018-Jan-09 21:29S 01°31' W 048°46'  

Dump ship's entire track history